createdAt,value
2019-04-28T00:00:27.608Z,22.2
2019-04-28T00:01:17.681Z,22.2
2019-04-28T00:02:07.456Z,22.2
2019-04-28T00:02:57.795Z,22.2
2019-04-28T00:03:47.862Z,22.2
2019-04-28T00:04:37.920Z,22.3
2019-04-28T00:05:27.978Z,22.2
2019-04-28T00:06:18.038Z,22.2
2019-04-28T00:07:08.108Z,22.2
2019-04-28T00:07:58.166Z,22.2
2019-04-28T00:08:48.220Z,22.2
2019-04-28T00:09:37.735Z,22.2
2019-04-28T00:10:28.070Z,22.2
2019-04-28T00:11:18.410Z,22.2
2019-04-28T00:12:08.472Z,22.2
2019-04-28T00:12:58.543Z,22.2
2019-04-28T00:13:48.327Z,22.2
2019-04-28T00:14:38.675Z,22.2
2019-04-28T00:15:28.457Z,22.2
2019-04-28T00:16:18.792Z,22.2
2019-04-28T00:17:08.860Z,22.2
2019-04-28T00:17:58.640Z,22.2
2019-04-28T00:18:48.697Z,22.2
2019-04-28T00:19:40.654Z,22.2
2019-04-28T00:20:30.947Z,22.2
2019-04-28T00:21:20.831Z,22.2
2019-04-28T00:22:10.836Z,22.2
2019-04-28T00:22:59.300Z,22.2
2019-04-28T00:23:51.038Z,22.2
2019-04-28T00:24:39.851Z,22.2
2019-04-28T00:25:31.048Z,22.2
2019-04-28T00:26:21.627Z,22.2
2019-04-28T00:27:11.428Z,22.2
2019-04-28T00:28:01.446Z,22.2
2019-04-28T00:28:51.484Z,22.2
2019-04-28T00:29:46.892Z,22.2
2019-04-28T00:30:31.553Z,22.2
2019-04-28T00:31:21.476Z,22.2
2019-04-28T00:32:12.193Z,22.2
2019-04-28T00:33:01.612Z,22.2
2019-04-28T00:33:52.338Z,22.2
2019-04-28T00:34:42.134Z,22.2
2019-04-28T00:35:34.997Z,22.2
2019-04-28T00:36:22.094Z,22.2
2019-04-28T00:37:12.082Z,22.2
2019-04-28T00:38:02.428Z,22.2
2019-04-28T00:38:52.429Z,22.2
2019-04-28T00:39:41.994Z,22.2
2019-04-28T00:40:32.811Z,22.2
2019-04-28T00:41:22.383Z,22.2
2019-04-28T00:42:12.481Z,22.2
2019-04-28T00:43:01.903Z,22.2
2019-04-28T00:43:52.924Z,22.2
2019-04-28T00:44:44.168Z,22.2
2019-04-28T00:45:32.408Z,22.2
2019-04-28T00:46:22.106Z,22.2
2019-04-28T00:47:11.866Z,22.2
2019-04-28T00:48:02.039Z,22.2
2019-04-28T00:48:51.911Z,22.2
2019-04-28T00:49:42.986Z,22.3
2019-04-28T00:50:32.322Z,22.2
2019-04-28T00:51:22.085Z,22.2
2019-04-28T00:52:12.168Z,22.2
2019-04-28T00:53:02.760Z,22.2
2019-04-28T00:53:51.701Z,22.2
2019-04-28T00:54:43.125Z,22.2
2019-04-28T00:55:32.767Z,22.2
2019-04-28T00:56:22.539Z,22.2
2019-04-28T00:57:12.018Z,22.2
2019-04-28T00:58:02.012Z,22.2
2019-04-28T00:58:53.888Z,22.2
2019-04-28T00:59:59.034Z,22.2
2019-04-28T01:00:32.375Z,22.2
2019-04-28T01:01:22.360Z,22.2
2019-04-28T03:06:45.282Z,22.3
2019-04-28T03:07:34.759Z,22.3
2019-04-28T03:08:25.089Z,22.3
2019-04-28T03:09:14.892Z,22.3
2019-04-28T03:10:05.498Z,22.3
2019-04-28T03:10:55.300Z,22.3
2019-04-28T03:11:45.610Z,22.3
2019-04-28T03:12:35.668Z,22.3
2019-04-28T03:13:25.742Z,22.3
2019-04-28T03:14:15.802Z,22.3
2019-04-28T03:15:05.880Z,22.3
2019-04-28T03:15:55.651Z,22.3
2019-04-28T03:16:46.031Z,22.3
2019-04-28T03:17:36.090Z,22.3
2019-04-28T03:18:26.101Z,22.3
2019-04-28T03:19:16.186Z,22.3
2019-04-28T03:20:06.247Z,22.2
2019-04-28T03:20:56.293Z,22.3
2019-04-28T03:21:46.360Z,22.3
2019-04-28T03:22:36.149Z,22.3
2019-04-28T03:23:26.485Z,22.3
2019-04-28T03:24:16.551Z,22.3
2019-04-28T03:25:06.629Z,22.3
2019-04-28T03:25:56.402Z,22.3
2019-04-28T03:26:46.752Z,22.3
2019-04-28T03:27:36.534Z,22.3
2019-04-28T03:28:26.605Z,22.3
2019-04-28T03:29:16.669Z,22.3
2019-04-28T03:30:06.996Z,22.3
2019-04-28T03:30:57.068Z,22.3
2019-04-28T03:32:46.974Z,22.3
2019-04-28T03:34:54.909Z,22.3
2019-04-28T03:35:43.317Z,22.3
2019-04-28T03:36:33.699Z,22.3
2019-04-28T03:37:24.438Z,22.3
2019-04-28T03:38:10.940Z,22.3
2019-04-28T03:39:01.700Z,22.3
2019-04-28T03:39:51.571Z,22.3
2019-04-28T03:40:41.912Z,22.3
2019-04-28T03:41:31.801Z,22.3
2019-04-28T03:42:22.369Z,22.3
2019-04-28T03:43:15.321Z,22.3
2019-04-28T03:44:01.311Z,22.3
2019-04-28T03:44:52.011Z,22.3
2019-04-28T03:45:41.808Z,22.3
2019-04-28T03:46:31.554Z,22.3
2019-04-28T03:47:22.416Z,22.3
2019-04-28T03:48:12.188Z,22.3
2019-04-28T03:49:01.870Z,22.3
2019-04-28T03:49:51.677Z,22.3
2019-04-28T03:50:42.563Z,22.3
2019-04-28T03:51:31.692Z,22.3
2019-04-28T03:52:21.892Z,22.3
2019-04-28T03:53:12.218Z,22.3
2019-04-28T03:54:03.758Z,22.3
2019-04-28T03:54:51.806Z,22.3
2019-04-28T03:55:42.449Z,22.3
2019-04-28T03:56:31.780Z,22.3
2019-04-28T03:57:22.485Z,22.3
2019-04-28T03:58:11.503Z,22.3
2019-04-28T03:59:01.530Z,22.3
2019-04-28T03:59:52.331Z,22.3
2019-04-28T04:00:41.960Z,22.3
2019-04-28T04:01:31.282Z,22.3
2019-04-28T04:02:24.262Z,22.3
2019-04-28T04:03:12.043Z,22.3
2019-04-28T04:04:04.312Z,22.3
2019-04-28T04:04:53.666Z,22.3
2019-04-28T04:05:41.812Z,22.3
2019-04-28T04:06:32.252Z,22.3
2019-04-28T04:07:22.841Z,22.3
2019-04-28T04:08:12.054Z,22.4
2019-04-28T04:09:01.515Z,22.4
2019-04-28T04:09:52.642Z,22.4
2019-04-28T04:10:41.257Z,22.4
2019-04-28T04:11:31.977Z,22.4
2019-04-28T04:12:22.239Z,22.5
2019-04-28T04:13:12.107Z,22.5
2019-04-28T04:14:02.539Z,22.6
2019-04-28T04:14:51.856Z,22.6
2019-04-28T04:15:42.397Z,22.6
2019-04-28T04:16:32.036Z,22.7
2019-04-28T04:17:21.982Z,22.8
2019-04-28T04:18:11.942Z,22.8
2019-04-28T04:19:02.017Z,22.8
2019-04-28T04:19:52.076Z,22.9
2019-04-28T04:20:42.229Z,22.9
2019-04-28T04:21:32.322Z,22.9
2019-04-28T04:22:22.424Z,22.9
2019-04-28T04:23:12.275Z,22.9
2019-04-28T04:24:02.371Z,22.9
2019-04-28T04:24:53.519Z,22.9
2019-04-28T04:25:42.956Z,22.9
2019-04-28T04:26:34.726Z,23
2019-04-28T04:27:22.624Z,23
2019-04-28T04:28:12.693Z,23.1
2019-04-28T04:29:02.498Z,23.1
2019-04-28T04:29:52.801Z,23.1
2019-04-28T04:30:42.893Z,23.1
2019-04-28T04:31:33.168Z,23.1
2019-04-28T04:32:30.372Z,23.1
2019-04-28T04:33:13.062Z,23.1
2019-04-28T04:34:04.455Z,23.1
2019-04-28T04:34:53.175Z,23.1
2019-04-28T04:35:44.816Z,23.1
2019-04-28T04:36:33.024Z,23.1
2019-04-28T04:37:23.081Z,23.1
2019-04-28T04:38:13.426Z,23.1
2019-04-28T04:39:02.958Z,23.2
2019-04-28T04:39:53.592Z,23.2
2019-04-28T04:40:43.607Z,23.1
2019-04-28T04:41:33.670Z,23.2
2019-04-28T04:42:23.735Z,23.1
2019-04-28T04:43:13.520Z,23.1
2019-04-28T04:44:03.918Z,23.1
2019-04-28T04:44:53.656Z,23.1
2019-04-28T04:45:44.002Z,23.1
2019-04-28T04:46:34.049Z,23.1
2019-04-28T04:47:24.102Z,23.1
2019-04-28T04:48:14.173Z,23
2019-04-28T04:49:04.235Z,23
2019-04-28T04:49:54.301Z,23
2019-04-28T04:50:44.077Z,23
2019-04-28T04:51:34.447Z,23
2019-04-28T04:52:24.227Z,22.9
2019-04-28T04:53:14.271Z,22.9
2019-04-28T04:54:04.330Z,22.9
2019-04-28T04:54:54.403Z,22.9
2019-04-28T04:55:44.722Z,22.9
2019-04-28T04:56:34.525Z,22.9
2019-04-28T04:57:24.843Z,22.9
2019-04-28T04:58:14.630Z,22.9
2019-04-28T04:59:04.975Z,22.9
2019-04-28T04:59:55.045Z,22.9
2019-04-28T05:00:45.138Z,22.9
2019-04-28T05:01:35.171Z,22.9
2019-04-28T05:02:33.725Z,22.9
2019-04-28T05:03:15.298Z,22.9
2019-04-28T05:04:05.349Z,22.9
2019-04-28T05:04:55.410Z,22.9
2019-04-28T05:05:45.472Z,22.9
2019-04-28T05:06:35.249Z,22.9
2019-04-28T05:07:25.592Z,22.9
2019-04-28T05:08:16.647Z,22.9
2019-04-28T05:09:05.452Z,22.9
2019-04-28T05:09:55.785Z,22.9
2019-04-28T05:10:45.842Z,22.9
2019-04-28T05:11:35.912Z,22.9
2019-04-28T05:12:25.432Z,22.9
2019-04-28T05:13:15.762Z,22.9
2019-04-28T05:14:12.227Z,22.9
2019-04-28T05:14:55.894Z,22.9
2019-04-28T05:15:45.673Z,22.9
2019-04-28T05:16:36.281Z,22.9
2019-04-28T05:17:26.351Z,22.9
2019-04-28T05:18:16.391Z,22.9
2019-04-28T05:19:06.191Z,22.9
2019-04-28T05:19:56.251Z,23
2019-04-28T05:20:46.583Z,23
2019-04-28T05:21:36.669Z,23
2019-04-28T05:22:26.448Z,23
2019-04-28T05:23:16.768Z,23
2019-04-28T05:24:17.895Z,22.9
2019-04-28T05:24:56.895Z,23
2019-04-28T05:25:46.724Z,23
2019-04-28T05:26:40.820Z,23
2019-04-28T05:27:26.811Z,23
2019-04-28T05:28:17.136Z,23
2019-04-28T05:29:07.203Z,23
2019-04-28T05:30:05.482Z,23
2019-04-28T05:30:47.331Z,23
2019-04-28T05:31:37.398Z,23
